createdAt,value
2018-06-01T00:01:27.210Z,5.13
2018-06-01T00:03:54.847Z,5.73
2018-06-01T00:06:23.191Z,5.30
2018-06-01T00:08:50.779Z,5.00
2018-06-01T00:11:19.114Z,5.43
2018-06-01T00:13:46.712Z,6.10
2018-06-01T00:16:14.270Z,4.70
2018-06-01T00:18:41.868Z,4.80
2018-06-01T00:21:10.194Z,5.43
2018-06-01T00:23:37.791Z,4.97
2018-06-01T00:26:05.351Z,5.33
2018-06-01T00:28:32.930Z,5.00
2018-06-01T00:31:00.511Z,5.60
2018-06-01T00:33:28.829Z,5.77
2018-06-01T00:35:56.439Z,5.27
2018-06-01T00:38:24.011Z,5.37
2018-06-01T00:40:51.607Z,5.27
2018-06-01T00:43:19.160Z,5.27
2018-06-01T00:45:47.520Z,5.60
2018-06-01T00:48:15.097Z,5.40
2018-06-01T00:50:43.470Z,5.00
2018-06-01T00:53:11.034Z,5.77
2018-06-01T00:55:38.647Z,5.50
2018-06-01T00:58:06.216Z,4.87
2018-06-01T01:00:33.812Z,5.50
2018-06-01T01:03:01.397Z,5.47
2018-06-01T01:05:28.994Z,4.93
2018-06-01T01:07:56.625Z,4.90
2018-06-01T01:10:24.221Z,5.07
2018-06-01T01:12:51.790Z,4.63
2018-06-01T01:15:19.344Z,4.77
2018-06-01T01:17:46.958Z,5.07
2018-06-01T01:20:14.583Z,4.73
2018-06-01T01:22:42.187Z,4.57
2018-06-01T01:25:09.756Z,5.33
2018-06-01T01:27:37.337Z,4.60
2018-06-01T01:30:04.901Z,5.10
2018-06-01T01:32:32.500Z,5.03
2018-06-01T01:35:00.834Z,5.20
2018-06-01T01:37:31.265Z,4.53
2018-06-01T01:39:58.838Z,5.03
2018-06-01T01:42:26.431Z,4.50
2018-06-01T01:44:54.753Z,4.93
2018-06-01T01:47:22.350Z,4.80
2018-06-01T01:49:53.854Z,4.90
2018-06-01T01:52:21.493Z,5.30
2018-06-01T01:54:49.855Z,5.10
2018-06-01T01:57:17.499Z,5.40
2018-06-01T01:59:45.089Z,5.03
2018-06-01T02:02:12.715Z,5.63
2018-06-01T02:04:40.263Z,5.20
2018-06-01T02:07:07.858Z,5.23
2018-06-01T02:09:35.448Z,5.20
2018-06-01T02:12:03.018Z,4.90
2018-06-01T02:14:30.607Z,5.00
2018-06-01T02:16:58.920Z,4.80
2018-06-01T02:19:26.510Z,4.80
2018-06-01T02:21:54.083Z,4.40
2018-06-01T02:24:21.805Z,4.40
2018-06-01T02:26:49.338Z,4.73
2018-06-01T02:29:17.706Z,4.10
2018-06-01T02:31:45.297Z,4.30
2018-06-01T02:34:13.647Z,4.57
2018-06-01T02:36:41.194Z,4.40
2018-06-01T02:39:08.798Z,4.87
2018-06-01T02:41:36.361Z,4.50
2018-06-01T02:44:03.957Z,5.50
2018-06-01T02:46:31.526Z,5.37
2018-06-01T02:48:59.132Z,4.80
2018-06-01T02:51:27.507Z,5.50
2018-06-01T02:53:55.083Z,6.13
2018-06-01T02:56:22.668Z,6.00
2018-06-01T02:58:51.001Z,5.90
2018-06-01T03:01:18.590Z,5.43
2018-06-01T03:03:46.160Z,5.73
2018-06-01T03:06:13.751Z,4.93
2018-06-01T03:08:41.473Z,5.03
2018-06-01T03:11:09.061Z,5.30
2018-06-01T03:13:36.617Z,4.73
2018-06-01T03:16:04.209Z,5.10
2018-06-01T03:18:31.744Z,5.13
2018-06-01T03:20:59.329Z,5.00
2018-06-01T03:23:26.904Z,5.00
2018-06-01T03:25:54.494Z,4.87
2018-06-01T03:28:22.810Z,4.70
2018-06-01T03:30:51.183Z,5.00
2018-06-01T03:33:18.854Z,5.00
2018-06-01T03:35:46.484Z,5.13
2018-06-01T03:38:14.870Z,5.03
2018-06-01T03:40:43.363Z,5.40
2018-06-01T03:43:11.671Z,5.40
2018-06-01T03:45:39.251Z,5.33
2018-06-01T03:48:06.836Z,4.77
2018-06-01T03:50:34.397Z,4.80
2018-06-01T03:53:02.043Z,5.03
2018-06-01T03:55:29.590Z,4.67
2018-06-01T03:57:57.192Z,4.77
2018-06-01T04:00:24.760Z,4.30
2018-06-01T04:02:52.358Z,4.57
2018-06-01T04:05:20.674Z,4.40
2018-06-01T04:07:48.274Z,4.63
2018-06-01T04:10:16.691Z,4.90
2018-06-01T04:12:45.042Z,4.90
2018-06-01T04:15:12.599Z,5.20
2018-06-01T04:17:40.186Z,5.07
2018-06-01T04:20:08.519Z,5.80
2018-06-01T04:22:36.116Z,5.20
2018-06-01T04:25:03.663Z,5.50
2018-06-01T04:27:31.261Z,4.77
2018-06-01T04:29:58.818Z,5.30
2018-06-01T04:32:26.380Z,5.97
2018-06-01T04:34:54.128Z,5.50
2018-06-01T04:37:21.698Z,5.10
2018-06-01T04:39:49.287Z,5.00
2018-06-01T04:42:16.848Z,4.97
2018-06-01T04:44:44.428Z,5.20
2018-06-01T04:47:12.750Z,5.07
2018-06-01T04:49:41.135Z,6.30
2018-06-01T04:52:08.715Z,5.90
2018-06-01T04:54:36.324Z,5.57
2018-06-01T04:57:04.641Z,5.60
2018-06-01T04:59:32.241Z,5.50
2018-06-01T05:01:59.793Z,5.60
2018-06-01T05:04:27.352Z,6.33
2018-06-01T05:06:54.941Z,5.13
2018-06-01T05:09:22.545Z,5.70
2018-06-01T05:11:50.856Z,5.80
2018-06-01T05:14:18.579Z,6.03
2018-06-01T05:16:46.443Z,5.90
2018-06-01T05:19:14.032Z,6.00
2018-06-01T05:21:42.390Z,5.67
2018-06-01T05:24:09.945Z,4.50
2018-06-01T05:26:37.536Z,5.77
2018-06-01T05:29:05.887Z,5.43
2018-06-01T05:31:33.458Z,5.50
2018-06-01T05:34:01.013Z,6.20
2018-06-01T05:36:28.594Z,5.30
2018-06-01T05:38:56.145Z,5.53
2018-06-01T05:41:23.727Z,5.43
2018-06-01T05:43:51.291Z,5.20
2018-06-01T05:46:18.880Z,5.27
2018-06-01T05:48:46.455Z,5.20
2018-06-01T05:51:14.047Z,5.83
2018-06-01T05:53:41.611Z,5.30
2018-06-01T05:56:09.195Z,5.97
2018-06-01T05:58:36.748Z,4.93
2018-06-01T06:01:04.336Z,5.30
2018-06-01T06:03:31.927Z,5.87
2018-06-01T06:06:00.249Z,5.50
2018-06-01T06:08:27.851Z,5.57
2018-06-01T06:10:55.432Z,5.57
2018-06-01T06:13:23.027Z,5.60
2018-06-01T06:15:50.645Z,5.37
2018-06-01T06:18:18.196Z,5.40
2018-06-01T06:20:45.780Z,5.07
2018-06-01T06:23:13.369Z,5.60
2018-06-01T06:25:41.744Z,5.20
2018-06-01T06:28:09.307Z,5.80
2018-06-01T06:30:36.859Z,5.70
2018-06-01T06:33:04.522Z,5.80
2018-06-01T06:35:32.122Z,5.83
2018-06-01T06:38:00.464Z,5.57
2018-06-01T06:40:28.042Z,5.60
2018-06-01T06:42:55.607Z,5.40
2018-06-01T06:45:23.192Z,5.57
2018-06-01T06:47:51.504Z,6.47
2018-06-01T06:50:19.083Z,5.87
2018-06-01T06:52:46.629Z,5.17
2018-06-01T06:55:14.270Z,5.93
2018-06-01T06:57:41.865Z,5.20
2018-06-01T07:00:09.447Z,5.50
2018-06-01T07:02:37.014Z,5.80
2018-06-01T07:05:04.589Z,5.23
2018-06-01T07:07:32.140Z,5.33
2018-06-01T07:09:59.723Z,5.63
2018-06-01T07:12:27.271Z,5.40
2018-06-01T07:14:54.858Z,5.83
2018-06-01T07:17:23.223Z,5.57
2018-06-01T07:19:50.910Z,5.60
2018-06-01T07:22:18.476Z,5.97
2018-06-01T07:24:46.847Z,5.80
2018-06-01T07:27:14.395Z,5.93
2018-06-01T07:29:41.970Z,6.10
2018-06-01T07:32:09.528Z,6.03
2018-06-01T07:34:37.112Z,5.67
2018-06-01T07:37:05.487Z,6.07
2018-06-01T07:39:33.048Z,5.77
2018-06-01T07:42:00.594Z,6.23
2018-06-01T07:44:28.203Z,5.70
2018-06-01T07:46:55.814Z,5.70
2018-06-01T07:49:23.374Z,6.03
2018-06-01T07:51:50.951Z,6.13
2018-06-01T07:54:18.506Z,5.47
2018-06-01T07:56:46.078Z,6.03
2018-06-01T07:59:13.630Z,5.83
2018-06-01T08:01:41.233Z,6.07
2018-06-01T08:04:08.781Z,6.33
2018-06-01T08:06:36.358Z,6.17
2018-06-01T08:09:03.904Z,5.63
2018-06-01T08:11:31.491Z,5.17
2018-06-01T08:13:59.038Z,5.60
2018-06-01T08:16:26.581Z,5.80
2018-06-01T08:18:54.210Z,6.40
2018-06-01T08:21:21.801Z,6.10
2018-06-01T08:23:50.106Z,6.47
2018-06-01T08:26:17.672Z,6.03
2018-06-01T08:28:45.246Z,5.97
2018-06-01T08:31:12.792Z,6.67
2018-06-01T08:33:40.480Z,7.07
2018-06-01T08:36:08.023Z,6.63
2018-06-01T08:38:35.566Z,6.07
2018-06-01T08:41:03.929Z,6.20
2018-06-01T08:43:32.292Z,6.50
2018-06-01T08:45:59.887Z,6.70
2018-06-01T08:48:28.243Z,7.10
2018-06-01T08:50:55.825Z,6.70
2018-06-01T08:53:23.373Z,6.57
2018-06-01T08:55:50.957Z,6.77
2018-06-01T08:58:18.537Z,6.33
2018-06-01T09:00:46.894Z,6.90
2018-06-01T09:03:14.453Z,7.17
2018-06-01T09:05:42.035Z,6.77
2018-06-01T09:08:10.029Z,6.87
2018-06-01T09:10:38.368Z,6.73
2018-06-01T09:13:05.919Z,6.67
2018-06-01T09:15:33.493Z,7.37
2018-06-01T09:18:01.048Z,7.23
2018-06-01T09:20:28.623Z,7.27
2018-06-01T09:22:56.166Z,7.37
2018-06-01T09:25:23.759Z,7.27
2018-06-01T09:27:51.329Z,7.10
2018-06-01T09:30:18.908Z,7.20
2018-06-01T09:32:46.456Z,7.10
2018-06-01T09:35:14.049Z,6.97
2018-06-01T09:37:42.379Z,7.30
2018-06-01T09:40:09.962Z,7.17
2018-06-01T09:42:37.519Z,7.37
2018-06-01T09:45:05.105Z,7.20
2018-06-01T09:47:32.706Z,7.60
2018-06-01T09:50:00.269Z,8.80
2018-06-01T09:52:27.863Z,8.03
2018-06-01T09:54:55.426Z,7.37
2018-06-01T09:57:23.015Z,7.70
2018-06-01T09:59:50.575Z,8.37
2018-06-01T10:02:18.156Z,7.67
2018-06-01T10:04:45.728Z,8.10
2018-06-01T10:07:13.323Z,8.20
2018-06-01T10:09:41.656Z,7.70
2018-06-01T10:12:09.241Z,8.40
2018-06-01T10:14:36.796Z,7.80
2018-06-01T10:17:04.381Z,7.83
2018-06-01T10:19:32.741Z,7.90
2018-06-01T10:22:00.275Z,7.77
2018-06-01T10:24:27.861Z,8.43
2018-06-01T10:26:55.416Z,7.77
2018-06-01T10:29:22.996Z,8.30
2018-06-01T10:31:50.565Z,7.97
2018-06-01T10:34:18.159Z,7.33
2018-06-01T10:36:46.510Z,8.10
2018-06-01T10:39:14.101Z,8.03
2018-06-01T10:41:41.682Z,7.47
2018-06-01T10:44:10.011Z,7.77
2018-06-01T10:46:37.598Z,8.13
2018-06-01T10:49:05.158Z,8.10
2018-06-01T10:51:32.745Z,7.83
2018-06-01T10:54:01.071Z,8.00
2018-06-01T10:56:28.651Z,7.90
2018-06-01T10:58:56.199Z,8.00
2018-06-01T11:01:23.771Z,7.27
2018-06-01T11:03:51.329Z,8.23
2018-06-01T11:06:18.903Z,7.90
2018-06-01T11:08:46.463Z,8.02
2018-06-01T11:11:14.064Z,8.02
2018-06-01T11:13:41.700Z,8.60
2018-06-01T11:16:10.017Z,8.38
2018-06-01T11:18:37.580Z,8.90
2018-06-01T11:21:05.138Z,8.40
2018-06-01T11:23:32.743Z,8.37
2018-06-01T11:26:01.076Z,8.38
2018-06-01T11:28:28.669Z,8.82
2018-06-01T11:30:56.222Z,8.93
2018-06-01T11:33:23.873Z,8.88
2018-06-01T11:35:51.434Z,9.07
2018-06-01T11:38:19.036Z,9.07
2018-06-01T11:40:46.601Z,8.38
2018-06-01T11:43:14.959Z,9.50
2018-06-01T11:45:42.561Z,9.37
2018-06-01T11:48:10.160Z,9.87
2018-06-01T11:50:37.715Z,9.73
2018-06-01T11:53:05.285Z,8.73
2018-06-01T11:55:33.640Z,9.18
2018-06-01T11:58:01.945Z,9.20
2018-06-01T12:00:29.534Z,9.98
2018-06-01T12:02:57.102Z,9.73
2018-06-01T12:05:24.944Z,8.93
2018-06-01T12:07:52.526Z,9.93
2018-06-01T12:10:20.140Z,9.55
2018-06-01T12:12:48.520Z,9.60
2018-06-01T12:15:16.118Z,9.20
2018-06-01T12:17:43.743Z,9.17
2018-06-01T12:20:11.295Z,9.23
2018-06-01T12:22:38.849Z,9.23
2018-06-01T12:25:06.433Z,8.97
2018-06-01T12:27:34.008Z,10.00
2018-06-01T12:30:01.622Z,9.32
2018-06-01T12:32:29.192Z,9.40
2018-06-01T12:34:56.762Z,10.10
2018-06-01T12:37:24.354Z,10.13
2018-06-01T12:39:51.914Z,10.20
2018-06-01T12:42:19.511Z,9.57
2018-06-01T12:44:47.850Z,10.02
2018-06-01T12:47:15.454Z,10.77
2018-06-01T12:49:43.783Z,9.23
2018-06-01T12:52:11.525Z,9.88
2018-06-01T12:54:39.127Z,10.27
2018-06-01T12:57:06.707Z,9.65
2018-06-01T12:59:34.265Z,10.18
2018-06-01T13:02:01.851Z,10.80
2018-06-01T13:04:29.436Z,10.57
2018-06-01T13:06:57.058Z,9.77
2018-06-01T13:09:24.648Z,10.48
2018-06-01T13:11:52.247Z,10.15
2018-06-01T13:14:19.836Z,10.20
2018-06-01T13:16:47.395Z,10.40
2018-06-01T13:19:14.988Z,9.20
2018-06-01T13:21:42.582Z,9.98
2018-06-01T13:24:10.179Z,10.02
2018-06-01T13:26:37.734Z,9.50
2018-06-01T13:29:05.399Z,9.07
2018-06-01T13:31:33.768Z,9.90
2018-06-01T13:34:02.124Z,10.57
2018-06-01T13:36:29.684Z,10.40
2018-06-01T13:38:57.324Z,10.20
2018-06-01T13:41:24.974Z,10.00
2018-06-01T13:43:52.566Z,10.32
2018-06-01T13:46:20.144Z,9.80
2018-06-01T13:48:47.742Z,10.15
2018-06-01T13:51:16.082Z,10.05
2018-06-01T13:53:43.684Z,11.00
2018-06-01T13:56:11.258Z,10.55
2018-06-01T13:58:39.704Z,10.18
2018-06-01T14:01:08.096Z,10.13
2018-06-01T14:03:35.900Z,11.15
2018-06-01T14:06:03.510Z,11.68
2018-06-01T14:08:31.064Z,11.27
2018-06-01T14:10:58.667Z,11.48
2018-06-01T14:13:26.249Z,10.77
2018-06-01T14:15:54.613Z,10.48
2018-06-01T14:18:22.178Z,10.50
2018-06-01T14:20:49.780Z,11.12
2018-06-01T14:23:18.117Z,12.20
2018-06-01T14:25:45.726Z,11.38
2018-06-01T14:28:13.284Z,11.65
2018-06-01T14:30:40.896Z,11.23
2018-06-01T14:33:08.520Z,11.25
2018-06-01T14:35:36.106Z,11.45
2018-06-01T14:38:03.705Z,11.52
2018-06-01T14:40:31.367Z,11.38
2018-06-01T14:42:58.889Z,11.48
2018-06-01T14:45:27.228Z,11.43
2018-06-01T14:47:54.816Z,11.35
2018-06-01T14:50:22.376Z,10.77
2018-06-01T14:52:49.985Z,11.63
2018-06-01T14:55:17.557Z,11.07
2018-06-01T14:57:45.163Z,11.55
2018-06-01T15:00:12.712Z,10.82
2018-06-01T15:02:40.297Z,11.15
2018-06-01T15:05:07.868Z,10.68
2018-06-01T15:07:35.458Z,10.63
2018-06-01T15:10:03.020Z,12.02
2018-06-01T15:12:31.379Z,10.88
2018-06-01T15:14:58.976Z,12.43
2018-06-01T15:17:26.584Z,10.68
2018-06-01T15:19:54.167Z,11.65
2018-06-01T15:22:21.775Z,11.60
2018-06-01T15:24:49.380Z,12.00
2018-06-01T15:27:16.941Z,10.93
2018-06-01T15:29:44.522Z,10.30
2018-06-01T15:32:12.094Z,7.85
2018-06-01T15:34:39.694Z,7.90
2018-06-01T15:37:07.248Z,8.17
2018-06-01T15:39:35.629Z,7.27
2018-06-01T15:42:03.959Z,6.53
2018-06-01T15:44:31.546Z,7.53
2018-06-01T15:46:59.120Z,6.90
2018-06-01T15:49:26.722Z,7.10
2018-06-01T15:51:54.284Z,7.90
2018-06-01T15:54:22.041Z,7.67
2018-06-01T15:56:50.498Z,7.53
2018-06-01T15:59:18.776Z,7.37
2018-06-01T16:01:46.353Z,7.77
2018-06-01T16:04:14.859Z,7.97
2018-06-01T16:06:43.179Z,8.00
2018-06-01T16:09:10.995Z,7.73
2018-06-01T16:11:38.601Z,7.73
2018-06-01T16:14:06.176Z,8.60
2018-06-01T16:16:33.765Z,8.33
2018-06-01T16:19:02.044Z,8.93
2018-06-01T16:21:29.734Z,9.07
2018-06-01T16:23:58.075Z,9.00
2018-06-01T16:26:25.679Z,10.03
2018-06-01T16:28:54.125Z,10.73
2018-06-01T16:31:21.787Z,11.00
2018-06-01T16:33:50.967Z,12.03
2018-06-01T16:36:19.309Z,10.93
2018-06-01T16:38:46.858Z,12.20
2018-06-01T16:41:14.435Z,12.27
2018-06-01T16:43:41.984Z,13.03
2018-06-01T16:46:09.573Z,12.33
2018-06-01T16:48:37.122Z,14.27
2018-06-01T16:51:04.679Z,12.80
2018-06-01T16:53:32.272Z,13.60
2018-06-01T16:55:59.871Z,13.93
2018-06-01T16:58:27.416Z,14.10
2018-06-01T17:00:55.772Z,14.47
2018-06-01T17:03:23.333Z,14.60
2018-06-01T17:05:50.931Z,15.23
2018-06-01T17:08:19.251Z,14.17
2018-06-01T17:10:46.836Z,14.73
2018-06-01T17:13:14.462Z,14.03
2018-06-01T17:15:42.012Z,14.67
2018-06-01T17:18:10.358Z,14.30
2018-06-01T17:20:37.943Z,13.73
2018-06-01T17:23:05.499Z,14.40
2018-06-01T17:25:33.053Z,14.90
2018-06-01T17:28:00.635Z,14.60
2018-06-01T17:30:28.188Z,15.63
2018-06-01T17:32:55.876Z,16.13
2018-06-01T17:35:23.452Z,15.47
2018-06-01T17:37:51.804Z,16.37
2018-06-01T17:40:19.363Z,16.70
2018-06-01T17:42:46.951Z,17.10
2018-06-01T17:45:15.306Z,17.33
2018-06-01T17:47:43.699Z,17.00
2018-06-01T17:50:11.263Z,17.87
2018-06-01T17:52:38.863Z,18.53
2018-06-01T17:55:07.174Z,18.77
2018-06-01T17:57:34.762Z,18.00
2018-06-01T18:00:02.333Z,18.23
2018-06-01T18:02:29.997Z,17.37
2018-06-01T18:04:57.589Z,11.70
2018-06-01T18:07:25.177Z,10.80
2018-06-01T18:09:52.750Z,10.90
2018-06-01T18:12:20.335Z,10.40
2018-06-01T18:14:47.910Z,11.07
2018-06-01T18:17:15.508Z,11.30
2018-06-01T18:19:43.059Z,10.40
2018-06-01T18:22:10.647Z,12.30
2018-06-01T18:24:38.982Z,11.70
2018-06-01T18:27:06.586Z,11.30
2018-06-01T18:29:34.209Z,11.33
2018-06-01T18:32:01.773Z,10.67
2018-06-01T18:34:29.355Z,11.10
2018-06-01T18:36:56.966Z,11.23
2018-06-01T18:39:25.297Z,11.27
2018-06-01T18:41:52.890Z,12.20
2018-06-01T18:44:20.488Z,14.00
2018-06-01T18:46:48.851Z,13.80
2018-06-01T18:49:17.221Z,13.53
2018-06-01T18:51:44.835Z,14.50
2018-06-01T18:54:12.397Z,16.00
2018-06-01T18:56:39.992Z,17.47
2018-06-01T18:59:07.558Z,16.17
2018-06-01T19:01:35.156Z,15.77
2018-06-01T19:04:03.495Z,15.47
2018-06-01T19:06:31.104Z,15.17
2018-06-01T19:08:58.690Z,12.33
2018-06-01T19:11:27.652Z,10.90
2018-06-01T19:13:55.211Z,11.27
2018-06-01T19:16:23.565Z,11.80
2018-06-01T19:18:51.148Z,11.30
2018-06-01T19:21:18.752Z,11.73
2018-06-01T19:23:46.436Z,10.27
2018-06-01T19:26:13.960Z,8.73
2018-06-01T19:28:41.557Z,9.53
2018-06-01T19:31:09.870Z,8.93
2018-06-01T19:33:37.459Z,9.37
2018-06-01T19:36:05.010Z,11.73
2018-06-01T19:38:32.591Z,12.43
2018-06-01T19:41:00.177Z,14.07
2018-06-01T19:43:27.773Z,17.70
2018-06-01T19:45:56.117Z,15.93
2018-06-01T19:48:23.755Z,16.93
2018-06-01T19:50:51.307Z,15.50
2018-06-01T19:53:18.906Z,16.03
2018-06-01T19:55:46.477Z,15.23
2018-06-01T19:58:14.076Z,15.20
2018-06-01T20:00:42.413Z,10.10
2018-06-01T20:03:10.007Z,7.67
2018-06-01T20:05:37.588Z,11.27
2018-06-01T20:08:05.952Z,10.00
2018-06-01T20:10:34.286Z,8.93
2018-06-01T20:13:01.895Z,7.23
2018-06-01T20:15:29.462Z,6.80
2018-06-01T20:17:57.006Z,7.00
2018-06-01T20:20:24.595Z,5.60
2018-06-01T20:22:52.189Z,5.93
2018-06-01T20:25:19.773Z,6.67
2018-06-01T20:27:47.355Z,8.90
2018-06-01T20:30:14.951Z,8.93
2018-06-01T20:32:42.529Z,10.00
2018-06-01T20:35:10.884Z,9.37
2018-06-01T20:37:38.441Z,8.57
2018-06-01T20:40:06.018Z,8.73
2018-06-01T20:42:33.577Z,9.07
2018-06-01T20:45:01.175Z,8.70
2018-06-01T20:47:29.506Z,10.10
2018-06-01T20:49:57.105Z,9.80
2018-06-01T20:52:25.468Z,10.43
2018-06-01T20:54:53.077Z,10.77
2018-06-01T20:57:21.399Z,11.37
2018-06-01T20:59:48.991Z,10.43
2018-06-01T21:02:16.590Z,11.03
2018-06-01T21:04:44.920Z,10.70
2018-06-01T21:07:12.510Z,10.97
2018-06-01T21:09:40.133Z,10.70
2018-06-01T21:12:07.691Z,11.63
2018-06-01T21:14:35.249Z,11.53
2018-06-01T21:17:02.835Z,11.87
2018-06-01T21:19:30.404Z,12.50
2018-06-01T21:21:57.993Z,12.67
2018-06-01T21:24:25.600Z,13.00
2018-06-01T21:26:53.180Z,12.23
2018-06-01T21:29:20.779Z,12.60
2018-06-01T21:31:48.335Z,12.73
2018-06-01T21:34:15.935Z,13.63
2018-06-01T21:36:43.498Z,13.83
2018-06-01T21:39:11.152Z,12.17
2018-06-01T21:41:38.706Z,10.00
2018-06-01T21:44:06.293Z,10.03
2018-06-01T21:46:33.857Z,9.53
2018-06-01T21:49:01.442Z,10.13
2018-06-01T21:51:29.771Z,9.50
2018-06-01T21:53:57.356Z,8.97
2018-06-01T21:56:24.917Z,8.13
2018-06-01T21:58:52.499Z,8.13
2018-06-01T22:01:20.067Z,8.27
2018-06-01T22:03:47.754Z,8.80
2018-06-01T22:06:16.076Z,9.33
2018-06-01T22:08:43.633Z,12.10
2018-06-01T22:11:11.227Z,13.10
2018-06-01T22:13:38.792Z,12.20
2018-06-01T22:16:06.383Z,12.07
2018-06-01T22:18:33.954Z,12.10
2018-06-01T22:21:02.300Z,12.30
2018-06-01T22:23:29.883Z,12.37
2018-06-01T22:25:57.473Z,13.07
2018-06-01T22:28:25.807Z,13.57
2018-06-01T22:30:53.398Z,12.30
2018-06-01T22:33:21.041Z,12.47
2018-06-01T22:35:48.683Z,12.10
2018-06-01T22:38:16.268Z,12.83
2018-06-01T22:40:45.071Z,12.53
2018-06-01T22:43:12.630Z,12.40
2018-06-01T22:45:40.218Z,12.00
2018-06-01T22:48:07.784Z,14.10
2018-06-01T22:50:35.348Z,14.13
2018-06-01T22:53:02.968Z,14.27
2018-06-01T22:55:30.560Z,14.13
2018-06-01T22:57:58.160Z,15.00
2018-06-01T23:00:30.411Z,14.40
2018-06-01T23:02:58.003Z,13.70
2018-06-01T23:05:26.427Z,13.87
2018-06-01T23:07:54.052Z,14.63
2018-06-01T23:10:21.625Z,14.87
2018-06-01T23:12:50.046Z,15.77
2018-06-01T23:15:17.625Z,15.50
2018-06-01T23:17:45.229Z,15.00
2018-06-01T23:20:12.797Z,15.93
2018-06-01T23:22:41.151Z,16.37
2018-06-01T23:25:08.711Z,15.97
2018-06-01T23:27:36.301Z,16.20
2018-06-01T23:30:03.860Z,16.23
2018-06-01T23:32:31.496Z,15.43
2018-06-01T23:34:59.049Z,16.70
2018-06-01T23:37:26.613Z,16.33
2018-06-01T23:39:54.275Z,15.30
2018-06-01T23:42:22.002Z,15.90
2018-06-01T23:44:50.395Z,16.50
2018-06-01T23:47:18.039Z,16.20
2018-06-01T23:49:46.558Z,16.80
2018-06-01T23:52:14.170Z,16.50
2018-06-01T23:54:41.742Z,17.90
2018-06-01T23:57:09.336Z,16.87
2018-06-01T23:59:37.719Z,17.57
